sensor_id;sensor_type;location;lat;lon;timestamp;temperature;humidity
32476;DHT22;18929;48.008;10.882;2023-04-08T00:01:00;10.60;99.90
32476;DHT22;18929;48.008;10.882;2023-04-08T00:03:28;10.70;99.90
32476;DHT22;18929;48.008;10.882;2023-04-08T00:05:55;10.70;99.90
32476;DHT22;18929;48.008;10.882;2023-04-08T00:08:22;10.50;99.90
32476;DHT22;18929;48.008;10.882;2023-04-08T00:10:48;10.50;99.90
32476;DHT22;18929;48.008;10.882;2023-04-08T00:13:15;10.40;99.90
32476;DHT22;18929;48.008;10.882;2023-04-08T00:15:42;10.30;99.90
32476;DHT22;18929;48.008;10.882;2023-04-08T00:18:09;10.20;99.90
32476;DHT22;18929;48.008;10.882;2023-04-08T00:20:37;10.20;99.90
32476;DHT22;18929;48.008;10.882;2023-04-08T00:23:04;10.30;99.90
32476;DHT22;18929;48.008;10.882;2023-04-08T00:25:30;10.40;99.90
32476;DHT22;18929;48.008;10.882;2023-04-08T00:27:57;10.30;99.90
32476;DHT22;18929;48.008;10.882;2023-04-08T00:30:24;10.20;99.90
32476;DHT22;18929;48.008;10.882;2023-04-08T00:32:51;10.30;99.90
32476;DHT22;18929;48.008;10.882;2023-04-08T00:35:18;10.10;99.90
32476;DHT22;18929;48.008;10.882;2023-04-08T00:37:47;10.20;99.90
32476;DHT22;18929;48.008;10.882;2023-04-08T00:40:14;10.30;99.90
32476;DHT22;18929;48.008;10.882;2023-04-08T00:42:41;10.30;99.90
32476;DHT22;18929;48.008;10.882;2023-04-08T00:45:08;10.30;99.90
32476;DHT22;18929;48.008;10.882;2023-04-08T00:47:35;10.30;99.90
32476;DHT22;18929;48.008;10.882;2023-04-08T00:50:02;10.40;99.90
32476;DHT22;18929;48.008;10.882;2023-04-08T00:52:29;10.30;99.90
32476;DHT22;18929;48.008;10.882;2023-04-08T00:54:57;10.20;99.90
32476;DHT22;18929;48.008;10.882;2023-04-08T00:57:24;10.00;99.90
32476;DHT22;18929;48.008;10.882;2023-04-08T00:59:50;10.10;99.90
32476;DHT22;18929;48.008;10.882;2023-04-08T01:02:18;10.10;99.90
32476;DHT22;18929;48.008;10.882;2023-04-08T01:04:49;10.10;99.90
32476;DHT22;18929;48.008;10.882;2023-04-08T01:07:19;10.00;99.90
32476;DHT22;18929;48.008;10.882;2023-04-08T01:09:48;10.20;99.90
32476;DHT22;18929;48.008;10.882;2023-04-08T01:12:18;10.30;99.90
32476;DHT22;18929;48.008;10.882;2023-04-08T01:14:47;10.10;99.90
32476;DHT22;18929;48.008;10.882;2023-04-08T01:17:14;10.00;99.90
32476;DHT22;18929;48.008;10.882;2023-04-08T01:19:43;9.90;99.90
32476;DHT22;18929;48.008;10.882;2023-04-08T01:22:17;10.00;99.90
32476;DHT22;18929;48.008;10.882;2023-04-08T01:24:45;10.20;99.90
32476;DHT22;18929;48.008;10.882;2023-04-08T01:27:14;10.20;99.90
32476;DHT22;18929;48.008;10.882;2023-04-08T01:29:42;10.30;99.90
32476;DHT22;18929;48.008;10.882;2023-04-08T01:32:09;10.20;99.90
32476;DHT22;18929;48.008;10.882;2023-04-08T01:34:36;9.80;99.90
32476;DHT22;18929;48.008;10.882;2023-04-08T01:37:03;10.00;99.90
32476;DHT22;18929;48.008;10.882;2023-04-08T01:39:32;10.10;99.90
32476;DHT22;18929;48.008;10.882;2023-04-08T01:41:59;10.20;99.90
32476;DHT22;18929;48.008;10.882;2023-04-08T01:44:28;10.20;99.90
32476;DHT22;18929;48.008;10.882;2023-04-08T01:46:55;10.00;99.90
32476;DHT22;18929;48.008;10.882;2023-04-08T01:49:22;10.00;99.90
32476;DHT22;18929;48.008;10.882;2023-04-08T01:51:50;10.00;99.90
32476;DHT22;18929;48.008;10.882;2023-04-08T01:54:17;9.90;99.90
32476;DHT22;18929;48.008;10.882;2023-04-08T01:56:44;9.70;99.90
32476;DHT22;18929;48.008;10.882;2023-04-08T01:59:12;9.60;99.90
32476;DHT22;18929;48.008;10.882;2023-04-08T02:01:41;9.70;99.90
32476;DHT22;18929;48.008;10.882;2023-04-08T02:04:09;9.70;99.90
32476;DHT22;18929;48.008;10.882;2023-04-08T02:06:36;9.70;99.90
32476;DHT22;18929;48.008;10.882;2023-04-08T02:09:03;9.60;99.90
32476;DHT22;18929;48.008;10.882;2023-04-08T02:11:30;9.80;99.90
32476;DHT22;18929;48.008;10.882;2023-04-08T02:13:57;10.00;99.90
32476;DHT22;18929;48.008;10.882;2023-04-08T02:16:25;10.00;99.90
32476;DHT22;18929;48.008;10.882;2023-04-08T02:18:57;10.00;99.90
32476;DHT22;18929;48.008;10.882;2023-04-08T02:21:26;10.00;99.90
32476;DHT22;18929;48.008;10.882;2023-04-08T02:23:54;10.00;99.90
32476;DHT22;18929;48.008;10.882;2023-04-08T02:26:21;10.00;99.90
32476;DHT22;18929;48.008;10.882;2023-04-08T02:28:48;10.00;99.90
32476;DHT22;18929;48.008;10.882;2023-04-08T02:31:16;10.10;99.90
32476;DHT22;18929;48.008;10.882;2023-04-08T02:33:43;9.90;99.90
32476;DHT22;18929;48.008;10.882;2023-04-08T02:36:11;9.80;99.90
32476;DHT22;18929;48.008;10.882;2023-04-08T02:38:38;9.80;99.90
32476;DHT22;18929;48.008;10.882;2023-04-08T02:41:05;9.90;99.90
32476;DHT22;18929;48.008;10.882;2023-04-08T02:43:32;9.80;99.90
32476;DHT22;18929;48.008;10.882;2023-04-08T02:45:59;9.80;99.90
32476;DHT22;18929;48.008;10.882;2023-04-08T02:48:27;9.60;99.90
32476;DHT22;18929;48.008;10.882;2023-04-08T02:50:54;9.50;99.90
32476;DHT22;18929;48.008;10.882;2023-04-08T02:53:23;9.40;99.90
32476;DHT22;18929;48.008;10.882;2023-04-08T02:55:50;9.40;99.90
32476;DHT22;18929;48.008;10.882;2023-04-08T02:58:17;9.60;99.90
32476;DHT22;18929;48.008;10.882;2023-04-08T03:00:43;9.50;99.90
32476;DHT22;18929;48.008;10.882;2023-04-08T03:03:10;9.60;99.90
32476;DHT22;18929;48.008;10.882;2023-04-08T03:05:37;9.70;99.90
32476;DHT22;18929;48.008;10.882;2023-04-08T03:08:04;9.80;99.90
32476;DHT22;18929;48.008;10.882;2023-04-08T03:10:33;9.80;99.90
32476;DHT22;18929;48.008;10.882;2023-04-08T03:13:00;9.70;99.90
32476;DHT22;18929;48.008;10.882;2023-04-08T03:15:27;9.70;99.90
32476;DHT22;18929;48.008;10.882;2023-04-08T03:17:54;9.40;99.90
32476;DHT22;18929;48.008;10.882;2023-04-08T03:20:20;9.50;99.90
32476;DHT22;18929;48.008;10.882;2023-04-08T03:22:47;9.30;99.90
32476;DHT22;18929;48.008;10.882;2023-04-08T03:25:14;9.30;99.90
32476;DHT22;18929;48.008;10.882;2023-04-08T03:27:42;9.50;99.90
32476;DHT22;18929;48.008;10.882;2023-04-08T03:30:09;9.50;99.90
32476;DHT22;18929;48.008;10.882;2023-04-08T03:32:36;9.60;99.90
32476;DHT22;18929;48.008;10.882;2023-04-08T03:35:03;9.20;99.90
32476;DHT22;18929;48.008;10.882;2023-04-08T03:37:30;9.20;99.90
32476;DHT22;18929;48.008;10.882;2023-04-08T03:39:57;9.50;99.90
32476;DHT22;18929;48.008;10.882;2023-04-08T03:42:24;9.70;99.90
32476;DHT22;18929;48.008;10.882;2023-04-08T03:44:53;9.60;99.90
32476;DHT22;18929;48.008;10.882;2023-04-08T03:47:19;9.70;99.90
32476;DHT22;18929;48.008;10.882;2023-04-08T03:49:46;9.70;99.90
32476;DHT22;18929;48.008;10.882;2023-04-08T03:52:13;9.80;99.90
32476;DHT22;18929;48.008;10.882;2023-04-08T03:54:40;9.60;99.90
32476;DHT22;18929;48.008;10.882;2023-04-08T03:57:06;9.50;99.90
32476;DHT22;18929;48.008;10.882;2023-04-08T03:59:33;9.60;99.90
32476;DHT22;18929;48.008;10.882;2023-04-08T04:02:02;9.20;99.90
32476;DHT22;18929;48.008;10.882;2023-04-08T04:04:29;9.30;99.90
32476;DHT22;18929;48.008;10.882;2023-04-08T04:06:55;9.30;99.90
32476;DHT22;18929;48.008;10.882;2023-04-08T04:09:22;9.10;99.90
32476;DHT22;18929;48.008;10.882;2023-04-08T04:11:49;9.30;99.90
32476;DHT22;18929;48.008;10.882;2023-04-08T04:14:16;9.30;99.90
32476;DHT22;18929;48.008;10.882;2023-04-08T04:16:43;9.40;99.90
32476;DHT22;18929;48.008;10.882;2023-04-08T04:19:11;9.50;99.90
32476;DHT22;18929;48.008;10.882;2023-04-08T04:21:38;9.50;99.90
32476;DHT22;18929;48.008;10.882;2023-04-08T04:24:05;9.40;99.90
32476;DHT22;18929;48.008;10.882;2023-04-08T04:26:31;9.40;99.90
32476;DHT22;18929;48.008;10.882;2023-04-08T04:28:58;9.40;99.90
32476;DHT22;18929;48.008;10.882;2023-04-08T04:31:25;9.40;99.90
32476;DHT22;18929;48.008;10.882;2023-04-08T04:33:52;9.60;99.90
32476;DHT22;18929;48.008;10.882;2023-04-08T04:36:20;9.40;99.90
32476;DHT22;18929;48.008;10.882;2023-04-08T04:38:47;9.50;99.90
32476;DHT22;18929;48.008;10.882;2023-04-08T04:41:14;9.40;99.90
32476;DHT22;18929;48.008;10.882;2023-04-08T04:43:42;9.40;99.90
32476;DHT22;18929;48.008;10.882;2023-04-08T04:46:09;9.30;99.90
32476;DHT22;18929;48.008;10.882;2023-04-08T04:48:36;9.10;99.90
32476;DHT22;18929;48.008;10.882;2023-04-08T04:51:02;9.10;99.90
32476;DHT22;18929;48.008;10.882;2023-04-08T04:53:31;9.00;99.90
32476;DHT22;18929;48.008;10.882;2023-04-08T04:55:57;9.10;99.90
32476;DHT22;18929;48.008;10.882;2023-04-08T04:58:26;9.10;99.90
32476;DHT22;18929;48.008;10.882;2023-04-08T05:00:53;9.00;99.90
32476;DHT22;18929;48.008;10.882;2023-04-08T05:03:20;9.20;99.90
32476;DHT22;18929;48.008;10.882;2023-04-08T05:05:49;9.30;99.90
32476;DHT22;18929;48.008;10.882;2023-04-08T05:08:16;9.20;99.90
32476;DHT22;18929;48.008;10.882;2023-04-08T05:10:44;9.10;99.90
32476;DHT22;18929;48.008;10.882;2023-04-08T05:13:11;9.20;99.90
32476;DHT22;18929;48.008;10.882;2023-04-08T05:15:37;9.10;99.90
32476;DHT22;18929;48.008;10.882;2023-04-08T05:18:04;9.20;99.90
32476;DHT22;18929;48.008;10.882;2023-04-08T05:20:31;9.00;99.90
32476;DHT22;18929;48.008;10.882;2023-04-08T05:22:58;9.10;99.90
32476;DHT22;18929;48.008;10.882;2023-04-08T05:25:25;9.10;99.90
32476;DHT22;18929;48.008;10.882;2023-04-08T05:27:53;8.90;99.90
32476;DHT22;18929;48.008;10.882;2023-04-08T05:30:20;8.90;99.90
32476;DHT22;18929;48.008;10.882;2023-04-08T05:32:47;9.00;99.90
32476;DHT22;18929;48.008;10.882;2023-04-08T05:35:14;8.90;99.90
32476;DHT22;18929;48.008;10.882;2023-04-08T05:37:40;8.90;99.90
32476;DHT22;18929;48.008;10.882;2023-04-08T05:40:08;9.00;99.90
32476;DHT22;18929;48.008;10.882;2023-04-08T05:42:34;9.00;99.90
32476;DHT22;18929;48.008;10.882;2023-04-08T05:45:03;8.90;99.90
32476;DHT22;18929;48.008;10.882;2023-04-08T05:47:30;8.90;99.90
32476;DHT22;18929;48.008;10.882;2023-04-08T05:49:58;8.90;99.90
32476;DHT22;18929;48.008;10.882;2023-04-08T05:52:25;9.00;99.90
32476;DHT22;18929;48.008;10.882;2023-04-08T05:54:51;9.00;99.90
32476;DHT22;18929;48.008;10.882;2023-04-08T05:57:18;9.10;99.90
32476;DHT22;18929;48.008;10.882;2023-04-08T05:59:45;9.10;99.90
32476;DHT22;18929;48.008;10.882;2023-04-08T06:02:13;9.20;99.90
32476;DHT22;18929;48.008;10.882;2023-04-08T06:04:40;9.30;99.90
32476;DHT22;18929;48.008;10.882;2023-04-08T06:07:07;9.00;99.90
32476;DHT22;18929;48.008;10.882;2023-04-08T06:09:34;8.80;99.90
32476;DHT22;18929;48.008;10.882;2023-04-08T06:12:02;8.90;99.90
32476;DHT22;18929;48.008;10.882;2023-04-08T06:14:29;9.10;99.90
32476;DHT22;18929;48.008;10.882;2023-04-08T06:16:55;9.10;99.90
32476;DHT22;18929;48.008;10.882;2023-04-08T06:19:24;9.10;99.90
32476;DHT22;18929;48.008;10.882;2023-04-08T06:21:50;9.00;99.90
32476;DHT22;18929;48.008;10.882;2023-04-08T06:24:23;9.10;99.90
32476;DHT22;18929;48.008;10.882;2023-04-08T06:26:50;9.20;99.90
32476;DHT22;18929;48.008;10.882;2023-04-08T06:29:18;9.00;99.90
32476;DHT22;18929;48.008;10.882;2023-04-08T06:31:44;9.00;99.90
32476;DHT22;18929;48.008;10.882;2023-04-08T06:34:11;9.10;99.90
32476;DHT22;18929;48.008;10.882;2023-04-08T06:36:39;9.20;99.90
32476;DHT22;18929;48.008;10.882;2023-04-08T06:39:06;9.30;99.90
32476;DHT22;18929;48.008;10.882;2023-04-08T06:41:33;9.10;99.90
32476;DHT22;18929;48.008;10.882;2023-04-08T06:44:14;9.00;99.90
32476;DHT22;18929;48.008;10.882;2023-04-08T06:46:40;8.70;99.90
32476;DHT22;18929;48.008;10.882;2023-04-08T06:49:07;8.70;99.90
32476;DHT22;18929;48.008;10.882;2023-04-08T06:51:34;8.90;99.90
32476;DHT22;18929;48.008;10.882;2023-04-08T06:54:02;8.80;99.90
32476;DHT22;18929;48.008;10.882;2023-04-08T06:56:29;9.00;99.90
32476;DHT22;18929;48.008;10.882;2023-04-08T06:58:56;9.00;99.90
32476;DHT22;18929;48.008;10.882;2023-04-08T07:01:22;8.90;99.90
32476;DHT22;18929;48.008;10.882;2023-04-08T07:03:50;9.00;99.90
32476;DHT22;18929;48.008;10.882;2023-04-08T07:06:16;9.00;99.90
32476;DHT22;18929;48.008;10.882;2023-04-08T07:08:43;8.80;99.90
32476;DHT22;18929;48.008;10.882;2023-04-08T07:11:11;8.70;99.90
32476;DHT22;18929;48.008;10.882;2023-04-08T07:13:38;8.60;99.90
32476;DHT22;18929;48.008;10.882;2023-04-08T07:16:05;8.80;99.90
32476;DHT22;18929;48.008;10.882;2023-04-08T07:18:32;8.50;99.90
32476;DHT22;18929;48.008;10.882;2023-04-08T07:20:59;8.70;99.90
32476;DHT22;18929;48.008;10.882;2023-04-08T07:26:31;9.00;99.90
32476;DHT22;18929;48.008;10.882;2023-04-08T07:28:57;8.90;99.90
32476;DHT22;18929;48.008;10.882;2023-04-08T07:31:24;8.60;99.90
32476;DHT22;18929;48.008;10.882;2023-04-08T07:33:51;8.50;99.90
32476;DHT22;18929;48.008;10.882;2023-04-08T07:36:18;8.60;99.90
32476;DHT22;18929;48.008;10.882;2023-04-08T07:38:45;8.10;99.90
32476;DHT22;18929;48.008;10.882;2023-04-08T07:41:12;8.60;99.90
32476;DHT22;18929;48.008;10.882;2023-04-08T07:43:40;8.40;99.90
32476;DHT22;18929;48.008;10.882;2023-04-08T07:46:07;8.60;99.90
32476;DHT22;18929;48.008;10.882;2023-04-08T07:48:34;8.30;99.90
32476;DHT22;18929;48.008;10.882;2023-04-08T07:51:04;8.40;99.90
32476;DHT22;18929;48.008;10.882;2023-04-08T07:53:33;8.40;99.90
32476;DHT22;18929;48.008;10.882;2023-04-08T07:56:00;8.30;99.90
32476;DHT22;18929;48.008;10.882;2023-04-08T07:58:28;8.50;99.90
32476;DHT22;18929;48.008;10.882;2023-04-08T08:00:57;8.90;99.90
32476;DHT22;18929;48.008;10.882;2023-04-08T08:03:24;8.60;99.90
32476;DHT22;18929;48.008;10.882;2023-04-08T08:05:51;8.50;99.90
32476;DHT22;18929;48.008;10.882;2023-04-08T08:08:18;8.60;99.90
32476;DHT22;18929;48.008;10.882;2023-04-08T08:10:45;8.40;99.90
32476;DHT22;18929;48.008;10.882;2023-04-08T08:13:12;8.00;99.90
32476;DHT22;18929;48.008;10.882;2023-04-08T08:15:41;8.30;99.90
32476;DHT22;18929;48.008;10.882;2023-04-08T08:18:09;8.40;99.90
32476;DHT22;18929;48.008;10.882;2023-04-08T08:20:36;8.40;99.90
32476;DHT22;18929;48.008;10.882;2023-04-08T08:23:03;8.10;99.90
32476;DHT22;18929;48.008;10.882;2023-04-08T08:25:29;8.40;99.90
32476;DHT22;18929;48.008;10.882;2023-04-08T08:27:56;8.30;99.90
32476;DHT22;18929;48.008;10.882;2023-04-08T08:30:23;7.60;99.90
32476;DHT22;18929;48.008;10.882;2023-04-08T08:32:50;7.20;99.90
32476;DHT22;18929;48.008;10.882;2023-04-08T08:35:19;7.00;99.90
32476;DHT22;18929;48.008;10.882;2023-04-08T08:37:45;7.20;99.90
32476;DHT22;18929;48.008;10.882;2023-04-08T08:40:12;7.60;99.90
32476;DHT22;18929;48.008;10.882;2023-04-08T08:45:25;7.70;99.90
32476;DHT22;18929;48.008;10.882;2023-04-08T08:47:52;8.20;99.90
32476;DHT22;18929;48.008;10.882;2023-04-08T08:50:20;8.60;99.90
32476;DHT22;18929;48.008;10.882;2023-04-08T08:52:48;8.70;99.90
32476;DHT22;18929;48.008;10.882;2023-04-08T08:55:16;8.40;99.90
32476;DHT22;18929;48.008;10.882;2023-04-08T08:57:43;8.10;99.90
32476;DHT22;18929;48.008;10.882;2023-04-08T09:00:12;7.70;99.90
32476;DHT22;18929;48.008;10.882;2023-04-08T09:02:40;7.80;99.90
32476;DHT22;18929;48.008;10.882;2023-04-08T09:05:07;7.50;99.90
32476;DHT22;18929;48.008;10.882;2023-04-08T09:07:36;7.00;99.90
32476;DHT22;18929;48.008;10.882;2023-04-08T09:10:05;6.80;99.90
32476;DHT22;18929;48.008;10.882;2023-04-08T09:12:32;7.50;99.90
32476;DHT22;18929;48.008;10.882;2023-04-08T09:15:02;7.60;99.90
32476;DHT22;18929;48.008;10.882;2023-04-08T09:17:32;7.90;99.90
32476;DHT22;18929;48.008;10.882;2023-04-08T09:20:03;7.70;99.90
32476;DHT22;18929;48.008;10.882;2023-04-08T09:22:35;7.90;99.90
32476;DHT22;18929;48.008;10.882;2023-04-08T09:25:23;8.00;99.90
32476;DHT22;18929;48.008;10.882;2023-04-08T09:27:51;7.70;99.90
32476;DHT22;18929;48.008;10.882;2023-04-08T09:30:19;7.60;99.90
32476;DHT22;18929;48.008;10.882;2023-04-08T09:32:46;8.00;99.90
32476;DHT22;18929;48.008;10.882;2023-04-08T09:35:13;8.20;99.90
32476;DHT22;18929;48.008;10.882;2023-04-08T09:37:43;8.70;99.90
32476;DHT22;18929;48.008;10.882;2023-04-08T09:40:10;8.70;99.90
32476;DHT22;18929;48.008;10.882;2023-04-08T09:42:39;8.70;99.90
32476;DHT22;18929;48.008;10.882;2023-04-08T09:45:06;8.40;99.90
32476;DHT22;18929;48.008;10.882;2023-04-08T09:47:35;7.50;99.90
32476;DHT22;18929;48.008;10.882;2023-04-08T09:50:04;7.70;99.90
32476;DHT22;18929;48.008;10.882;2023-04-08T09:52:36;7.90;99.90
32476;DHT22;18929;48.008;10.882;2023-04-08T09:55:08;7.70;99.90
32476;DHT22;18929;48.008;10.882;2023-04-08T09:57:39;7.60;99.90
32476;DHT22;18929;48.008;10.882;2023-04-08T10:00:08;7.10;99.90
32476;DHT22;18929;48.008;10.882;2023-04-08T10:02:39;6.70;99.90
32476;DHT22;18929;48.008;10.882;2023-04-08T10:05:07;6.60;99.90
32476;DHT22;18929;48.008;10.882;2023-04-08T10:07:34;5.90;99.90
32476;DHT22;18929;48.008;10.882;2023-04-08T10:10:01;6.10;99.90
32476;DHT22;18929;48.008;10.882;2023-04-08T10:12:31;6.30;99.90
32476;DHT22;18929;48.008;10.882;2023-04-08T10:17:43;6.30;99.90
32476;DHT22;18929;48.008;10.882;2023-04-08T10:22:52;7.20;99.90
32476;DHT22;18929;48.008;10.882;2023-04-08T10:25:29;7.80;99.90
32476;DHT22;18929;48.008;10.882;2023-04-08T10:27:58;7.70;99.90
32476;DHT22;18929;48.008;10.882;2023-04-08T10:30:37;7.70;99.90
32476;DHT22;18929;48.008;10.882;2023-04-08T10:33:08;7.10;99.90
32476;DHT22;18929;48.008;10.882;2023-04-08T10:35:35;7.80;99.90
32476;DHT22;18929;48.008;10.882;2023-04-08T10:38:06;8.00;99.90
32476;DHT22;18929;48.008;10.882;2023-04-08T10:40:34;7.80;99.90
32476;DHT22;18929;48.008;10.882;2023-04-08T10:43:03;7.50;99.90
32476;DHT22;18929;48.008;10.882;2023-04-08T10:45:30;7.20;99.90
32476;DHT22;18929;48.008;10.882;2023-04-08T10:48:13;7.80;99.90
32476;DHT22;18929;48.008;10.882;2023-04-08T10:50:40;7.00;99.90
32476;DHT22;18929;48.008;10.882;2023-04-08T10:53:07;7.40;99.90
32476;DHT22;18929;48.008;10.882;2023-04-08T10:55:35;7.50;99.90
32476;DHT22;18929;48.008;10.882;2023-04-08T10:58:07;8.00;99.90
32476;DHT22;18929;48.008;10.882;2023-04-08T11:00:34;7.70;99.90
32476;DHT22;18929;48.008;10.882;2023-04-08T11:03:02;7.90;99.90
32476;DHT22;18929;48.008;10.882;2023-04-08T11:05:28;8.10;99.90
32476;DHT22;18929;48.008;10.882;2023-04-08T11:07:55;8.50;99.90
32476;DHT22;18929;48.008;10.882;2023-04-08T11:10:23;8.50;99.90
32476;DHT22;18929;48.008;10.882;2023-04-08T11:12:50;8.50;99.90
32476;DHT22;18929;48.008;10.882;2023-04-08T11:15:20;8.50;99.90
32476;DHT22;18929;48.008;10.882;2023-04-08T11:17:47;8.60;99.90
32476;DHT22;18929;48.008;10.882;2023-04-08T11:20:14;8.60;99.90
32476;DHT22;18929;48.008;10.882;2023-04-08T11:22:41;8.80;99.90
32476;DHT22;18929;48.008;10.882;2023-04-08T11:25:09;8.00;99.90
32476;DHT22;18929;48.008;10.882;2023-04-08T11:27:38;8.10;99.90
32476;DHT22;18929;48.008;10.882;2023-04-08T11:30:05;8.60;99.90
32476;DHT22;18929;48.008;10.882;2023-04-08T11:32:34;8.40;99.90
32476;DHT22;18929;48.008;10.882;2023-04-08T11:35:01;8.00;99.90
32476;DHT22;18929;48.008;10.882;2023-04-08T11:37:34;8.10;99.90
32476;DHT22;18929;48.008;10.882;2023-04-08T11:40:03;8.40;99.90
32476;DHT22;18929;48.008;10.882;2023-04-08T11:42:31;8.70;99.90
32476;DHT22;18929;48.008;10.882;2023-04-08T11:44:59;9.10;99.90
32476;DHT22;18929;48.008;10.882;2023-04-08T11:47:29;8.60;99.90
32476;DHT22;18929;48.008;10.882;2023-04-08T11:49:57;8.60;99.90
32476;DHT22;18929;48.008;10.882;2023-04-08T11:52:39;8.70;99.90
32476;DHT22;18929;48.008;10.882;2023-04-08T11:55:06;7.90;99.90
32476;DHT22;18929;48.008;10.882;2023-04-08T11:57:33;8.40;99.90
32476;DHT22;18929;48.008;10.882;2023-04-08T12:00:00;8.40;99.90
32476;DHT22;18929;48.008;10.882;2023-04-08T12:02:30;8.40;99.90
32476;DHT22;18929;48.008;10.882;2023-04-08T12:04:58;8.30;99.90
32476;DHT22;18929;48.008;10.882;2023-04-08T12:07:25;8.20;99.90
32476;DHT22;18929;48.008;10.882;2023-04-08T12:09:52;8.10;99.90
32476;DHT22;18929;48.008;10.882;2023-04-08T12:12:19;8.40;99.90
32476;DHT22;18929;48.008;10.882;2023-04-08T12:14:46;8.30;99.90
32476;DHT22;18929;48.008;10.882;2023-04-08T12:17:12;8.00;99.90
32476;DHT22;18929;48.008;10.882;2023-04-08T12:19:39;8.10;99.90
32476;DHT22;18929;48.008;10.882;2023-04-08T12:22:08;8.30;99.90
32476;DHT22;18929;48.008;10.882;2023-04-08T12:24:35;8.20;99.90
32476;DHT22;18929;48.008;10.882;2023-04-08T12:27:03;8.50;99.90
32476;DHT22;18929;48.008;10.882;2023-04-08T12:29:30;8.70;99.90
32476;DHT22;18929;48.008;10.882;2023-04-08T12:31:57;8.80;99.90
32476;DHT22;18929;48.008;10.882;2023-04-08T12:34:24;8.60;99.90
32476;DHT22;18929;48.008;10.882;2023-04-08T12:36:51;8.40;99.90
32476;DHT22;18929;48.008;10.882;2023-04-08T12:39:19;7.80;99.90
32476;DHT22;18929;48.008;10.882;2023-04-08T12:41:46;8.00;99.90
32476;DHT22;18929;48.008;10.882;2023-04-08T12:44:13;8.30;99.90
32476;DHT22;18929;48.008;10.882;2023-04-08T12:46:40;8.10;99.90
32476;DHT22;18929;48.008;10.882;2023-04-08T12:49:07;8.60;99.90
32476;DHT22;18929;48.008;10.882;2023-04-08T12:51:34;8.40;99.90
32476;DHT22;18929;48.008;10.882;2023-04-08T12:54:01;8.30;99.90
32476;DHT22;18929;48.008;10.882;2023-04-08T12:56:30;8.50;99.90
32476;DHT22;18929;48.008;10.882;2023-04-08T12:58:57;8.50;99.90
32476;DHT22;18929;48.008;10.882;2023-04-08T13:01:25;8.50;99.90
32476;DHT22;18929;48.008;10.882;2023-04-08T13:03:52;8.70;99.90
32476;DHT22;18929;48.008;10.882;2023-04-08T13:06:19;8.60;99.90
32476;DHT22;18929;48.008;10.882;2023-04-08T13:08:45;8.60;99.90
32476;DHT22;18929;48.008;10.882;2023-04-08T13:11:14;8.80;99.90
32476;DHT22;18929;48.008;10.882;2023-04-08T13:13:42;8.90;99.90
32476;DHT22;18929;48.008;10.882;2023-04-08T13:16:10;9.00;99.90
32476;DHT22;18929;48.008;10.882;2023-04-08T13:18:38;8.80;99.90
32476;DHT22;18929;48.008;10.882;2023-04-08T13:21:05;8.70;99.90
32476;DHT22;18929;48.008;10.882;2023-04-08T13:23:32;8.60;99.90
32476;DHT22;18929;48.008;10.882;2023-04-08T13:25:59;8.60;99.90
32476;DHT22;18929;48.008;10.882;2023-04-08T13:28:26;7.90;99.90
32476;DHT22;18929;48.008;10.882;2023-04-08T13:30:54;8.10;99.90
32476;DHT22;18929;48.008;10.882;2023-04-08T13:33:21;8.30;99.90
32476;DHT22;18929;48.008;10.882;2023-04-08T13:35:48;8.70;99.90
32476;DHT22;18929;48.008;10.882;2023-04-08T13:38:14;8.90;99.90
32476;DHT22;18929;48.008;10.882;2023-04-08T13:40:41;8.90;99.90
32476;DHT22;18929;48.008;10.882;2023-04-08T13:43:09;8.70;99.90
32476;DHT22;18929;48.008;10.882;2023-04-08T13:45:37;8.70;99.90
32476;DHT22;18929;48.008;10.882;2023-04-08T13:50:37;8.60;99.90
32476;DHT22;18929;48.008;10.882;2023-04-08T13:53:04;8.40;99.90
32476;DHT22;18929;48.008;10.882;2023-04-08T13:55:31;8.30;99.90
32476;DHT22;18929;48.008;10.882;2023-04-08T13:57:58;8.40;99.90
32476;DHT22;18929;48.008;10.882;2023-04-08T14:00:25;8.50;99.90
32476;DHT22;18929;48.008;10.882;2023-04-08T14:02:52;8.10;99.90
32476;DHT22;18929;48.008;10.882;2023-04-08T14:05:19;7.80;99.90
32476;DHT22;18929;48.008;10.882;2023-04-08T14:07:47;7.40;99.90
32476;DHT22;18929;48.008;10.882;2023-04-08T14:10:14;6.60;99.90
32476;DHT22;18929;48.008;10.882;2023-04-08T14:12:41;6.60;99.90
32476;DHT22;18929;48.008;10.882;2023-04-08T14:15:08;6.10;99.90
32476;DHT22;18929;48.008;10.882;2023-04-08T14:17:35;5.80;99.90
32476;DHT22;18929;48.008;10.882;2023-04-08T14:20:03;5.90;99.90
32476;DHT22;18929;48.008;10.882;2023-04-08T14:22:30;6.50;99.90
32476;DHT22;18929;48.008;10.882;2023-04-08T14:24:58;6.10;99.90
32476;DHT22;18929;48.008;10.882;2023-04-08T14:27:25;6.60;99.90
32476;DHT22;18929;48.008;10.882;2023-04-08T14:29:52;6.60;99.90
32476;DHT22;18929;48.008;10.882;2023-04-08T14:32:19;6.60;99.90
32476;DHT22;18929;48.008;10.882;2023-04-08T14:34:46;6.40;99.90
32476;DHT22;18929;48.008;10.882;2023-04-08T14:37:13;6.60;99.90
32476;DHT22;18929;48.008;10.882;2023-04-08T14:39:42;7.30;99.90
32476;DHT22;18929;48.008;10.882;2023-04-08T14:42:10;7.10;99.90
32476;DHT22;18929;48.008;10.882;2023-04-08T14:44:37;7.50;99.90
32476;DHT22;18929;48.008;10.882;2023-04-08T14:47:04;8.10;99.90
32476;DHT22;18929;48.008;10.882;2023-04-08T14:49:30;7.80;99.90
32476;DHT22;18929;48.008;10.882;2023-04-08T14:51:57;7.10;99.90
32476;DHT22;18929;48.008;10.882;2023-04-08T14:54:24;7.00;99.90
32476;DHT22;18929;48.008;10.882;2023-04-08T14:56:51;7.20;99.90
32476;DHT22;18929;48.008;10.882;2023-04-08T14:59:19;7.20;99.90
32476;DHT22;18929;48.008;10.882;2023-04-08T15:01:46;6.80;99.90
32476;DHT22;18929;48.008;10.882;2023-04-08T15:04:13;7.40;99.90
32476;DHT22;18929;48.008;10.882;2023-04-08T15:06:40;7.30;99.90
32476;DHT22;18929;48.008;10.882;2023-04-08T15:09:08;7.40;99.90
32476;DHT22;18929;48.008;10.882;2023-04-08T15:11:35;8.00;99.90
32476;DHT22;18929;48.008;10.882;2023-04-08T15:14:02;8.30;99.90
32476;DHT22;18929;48.008;10.882;2023-04-08T15:16:30;8.60;99.90
32476;DHT22;18929;48.008;10.882;2023-04-08T15:18:57;7.50;99.90
32476;DHT22;18929;48.008;10.882;2023-04-08T15:21:24;6.80;99.90
32476;DHT22;18929;48.008;10.882;2023-04-08T15:23:51;7.40;99.90
32476;DHT22;18929;48.008;10.882;2023-04-08T15:26:18;6.80;99.90
32476;DHT22;18929;48.008;10.882;2023-04-08T15:28:45;6.00;99.90
32476;DHT22;18929;48.008;10.882;2023-04-08T15:31:12;5.60;99.90
32476;DHT22;18929;48.008;10.882;2023-04-08T15:33:41;6.00;99.90
32476;DHT22;18929;48.008;10.882;2023-04-08T15:36:09;6.20;99.90
32476;DHT22;18929;48.008;10.882;2023-04-08T15:38:36;6.10;99.90
32476;DHT22;18929;48.008;10.882;2023-04-08T15:41:04;5.90;99.90
32476;DHT22;18929;48.008;10.882;2023-04-08T15:43:30;6.00;99.90
32476;DHT22;18929;48.008;10.882;2023-04-08T15:45:57;5.60;99.90